createdAt,value
2018-03-20T00:01:27.574Z,99386
2018-03-20T00:03:31.488Z,99378
2018-03-20T00:05:34.665Z,99378
2018-03-20T00:07:38.048Z,99381
2018-03-20T00:09:41.970Z,99379
2018-03-20T00:11:45.881Z,99386
2018-03-20T00:13:49.058Z,99385
2018-03-20T00:15:52.209Z,99381
2018-03-20T00:17:56.142Z,99386
2018-03-20T00:20:01.200Z,99387
2018-03-20T00:22:04.348Z,99394
2018-03-20T00:24:07.513Z,99385
2018-03-20T00:26:10.652Z,99391
2018-03-20T00:28:13.800Z,99398
2018-03-20T00:30:16.980Z,99397
2018-03-20T00:32:20.149Z,99395
2018-03-20T00:34:23.557Z,99385
2018-03-20T00:36:26.726Z,99391
2018-03-20T00:38:29.873Z,99399
2018-03-20T00:40:33.025Z,99393
2018-03-20T00:42:36.192Z,99390
2018-03-20T00:44:39.641Z,99391
2018-03-20T00:46:42.794Z,99388
2018-03-20T00:48:46.714Z,99390
2018-03-20T00:50:50.660Z,99392
2018-03-20T00:52:53.820Z,99386
2018-03-20T00:54:56.992Z,99399
2018-03-20T00:57:00.149Z,99406
2018-03-20T00:59:04.106Z,99392
2018-03-20T01:01:07.252Z,99401
2018-03-20T01:03:10.629Z,99404
2018-03-20T01:05:13.772Z,99421
2018-03-20T01:07:16.922Z,99407
2018-03-20T01:09:20.879Z,99400
2018-03-20T01:11:24.030Z,99408
2018-03-20T01:13:27.390Z,99401
2018-03-20T01:15:30.536Z,99398
2018-03-20T01:17:33.738Z,99395
2018-03-20T01:19:36.879Z,99399
2018-03-20T01:21:40.052Z,99392
2018-03-20T01:23:43.197Z,99396
2018-03-20T01:25:46.373Z,99388
2018-03-20T01:27:50.314Z,99392
2018-03-20T01:29:53.477Z,99404
2018-03-20T01:31:56.632Z,99406
2018-03-20T01:33:59.806Z,99402
2018-03-20T01:36:04.273Z,99405
2018-03-20T01:38:07.424Z,99398
2018-03-20T01:40:10.614Z,99403
2018-03-20T01:42:14.545Z,99407
2018-03-20T01:44:18.571Z,99409
2018-03-20T01:46:23.643Z,99401
2018-03-20T01:48:26.794Z,99390
2018-03-20T01:50:29.986Z,99385
2018-03-20T01:52:33.139Z,99390
2018-03-20T01:54:37.053Z,99395
2018-03-20T01:56:40.241Z,99400
2018-03-20T02:00:50.788Z,99395
2018-03-20T02:02:53.982Z,99396
2018-03-20T02:04:58.638Z,99398
2018-03-20T02:07:02.576Z,99393
2018-03-20T02:09:05.717Z,99399
2018-03-20T02:11:08.864Z,99393
2018-03-20T02:13:13.028Z,99395
2018-03-20T02:15:16.170Z,99393
2018-03-20T02:17:19.337Z,99386
2018-03-20T02:19:22.504Z,99393
2018-03-20T02:21:25.657Z,99392
2018-03-20T02:23:28.819Z,99395
2018-03-20T02:25:33.286Z,99401
2018-03-20T02:27:38.141Z,99395
2018-03-20T02:29:43.394Z,99397
2018-03-20T02:31:48.332Z,99393
2018-03-20T02:33:53.630Z,99391
2018-03-20T02:35:56.825Z,99398
2018-03-20T02:37:59.999Z,99393
2018-03-20T02:40:03.949Z,99394
2018-03-20T02:42:07.135Z,99392
2018-03-20T02:44:11.082Z,99390
2018-03-20T02:46:20.822Z,99378
2018-03-20T02:48:26.134Z,99379
2018-03-20T02:50:29.325Z,99373
2018-03-20T02:52:32.473Z,99383
2018-03-20T02:54:37.142Z,99379
2018-03-20T02:56:41.257Z,99385
2018-03-20T02:58:48.242Z,99393
2018-03-20T03:00:52.768Z,99385
2018-03-20T03:02:56.030Z,99365
2018-03-20T03:04:59.214Z,99370
2018-03-20T03:07:03.158Z,99370
2018-03-20T03:09:06.334Z,99372
2018-03-20T03:11:10.282Z,99363
2018-03-20T03:13:13.469Z,99351
2018-03-20T03:15:16.619Z,99347
2018-03-20T03:17:19.805Z,99351
2018-03-20T03:19:23.955Z,99357
2018-03-20T03:21:27.122Z,99341
2018-03-20T03:23:30.274Z,99357
2018-03-20T03:25:33.557Z,99352
2018-03-20T03:27:37.495Z,99348
2018-03-20T03:29:40.650Z,99353
2018-03-20T03:31:43.829Z,99351
2018-03-20T03:33:46.986Z,99353
2018-03-20T03:35:50.332Z,99355
2018-03-20T03:37:53.473Z,99352
2018-03-20T03:39:56.628Z,99353
2018-03-20T03:42:00.574Z,99355
2018-03-20T03:44:03.720Z,99349
2018-03-20T03:46:07.288Z,99348
2018-03-20T03:48:10.470Z,99351
2018-03-20T03:50:15.125Z,99350
2018-03-20T03:52:19.766Z,99340
2018-03-20T03:54:23.409Z,99343
2018-03-20T03:56:29.304Z,99351
2018-03-20T03:58:33.212Z,99353
2018-03-20T04:00:37.117Z,99343
2018-03-20T04:02:40.918Z,99342
2018-03-20T04:04:44.121Z,99344
2018-03-20T04:06:48.082Z,99347
2018-03-20T04:08:51.262Z,99338
2018-03-20T04:10:55.182Z,99335
2018-03-20T04:12:59.129Z,99344
2018-03-20T04:15:02.293Z,99349
2018-03-20T04:17:05.445Z,99337
2018-03-20T04:19:09.121Z,99342
2018-03-20T04:21:12.272Z,99338
2018-03-20T04:23:15.453Z,99351
2018-03-20T04:25:19.117Z,99340
2018-03-20T04:27:24.037Z,99346
2018-03-20T04:29:27.320Z,99334
2018-03-20T04:31:30.812Z,99337
2018-03-20T04:33:33.969Z,99340
2018-03-20T04:35:37.914Z,99337
2018-03-20T04:37:43.030Z,99338
2018-03-20T04:39:47.660Z,99328
2018-03-20T04:41:51.068Z,99335
2018-03-20T04:43:54.229Z,99330
2018-03-20T04:45:57.372Z,99332
2018-03-20T04:48:00.544Z,99323
2018-03-20T04:50:03.710Z,99320
2018-03-20T04:52:07.626Z,99322
2018-03-20T04:54:11.543Z,99326
2018-03-20T04:56:14.688Z,99328
2018-03-20T04:58:18.597Z,99329
2018-03-20T05:00:22.550Z,99332
2018-03-20T05:02:26.113Z,99341
2018-03-20T05:04:30.597Z,99337
2018-03-20T05:06:36.123Z,99330
2018-03-20T05:08:40.474Z,99343
2018-03-20T05:10:46.081Z,99330
2018-03-20T05:12:50.823Z,99331
2018-03-20T05:14:55.919Z,99332
2018-03-20T05:17:01.380Z,99329
2018-03-20T05:19:06.186Z,99342
2018-03-20T05:21:14.893Z,99333
2018-03-20T05:23:34.700Z,99345
2018-03-20T05:25:37.889Z,99342
2018-03-20T05:27:41.045Z,99328
2018-03-20T05:29:44.218Z,99349
2018-03-20T05:31:47.388Z,99334
2018-03-20T05:33:52.423Z,99351
2018-03-20T05:35:55.610Z,99344
2018-03-20T05:37:58.764Z,99346
2018-03-20T05:40:02.709Z,99346
2018-03-20T05:42:05.857Z,99349
2018-03-20T05:44:09.029Z,99338
2018-03-20T05:46:12.840Z,99346
2018-03-20T05:50:57.936Z,99341
2018-03-20T05:53:01.084Z,99349
2018-03-20T05:55:04.358Z,99349
2018-03-20T05:57:07.513Z,99348
2018-03-20T05:59:10.677Z,99352
2018-03-20T06:01:13.844Z,99355
2018-03-20T06:03:16.989Z,99353
2018-03-20T06:05:20.157Z,99359
2018-03-20T06:07:24.077Z,99344
2018-03-20T06:09:27.315Z,99349
2018-03-20T06:11:31.248Z,99353
2018-03-20T06:13:34.384Z,99357
2018-03-20T06:15:37.549Z,99348
2018-03-20T06:17:41.480Z,99361
2018-03-20T06:19:45.385Z,99364
2018-03-20T06:21:48.572Z,99363
2018-03-20T06:23:51.714Z,99366
2018-03-20T06:25:55.679Z,99373
2018-03-20T06:27:58.860Z,99366
2018-03-20T06:30:02.034Z,99373
2018-03-20T06:32:05.988Z,99373
2018-03-20T06:34:09.892Z,99383
2018-03-20T06:36:14.934Z,99381
2018-03-20T06:38:18.466Z,99385
2018-03-20T06:40:22.394Z,99387
2018-03-20T06:42:26.305Z,99393
2018-03-20T06:44:31.038Z,99392
2018-03-20T06:46:34.708Z,99388
2018-03-20T06:48:37.856Z,99390
2018-03-20T06:50:40.993Z,99384
2018-03-20T06:52:46.360Z,99383
2018-03-20T06:54:51.086Z,99385
2018-03-20T06:56:55.626Z,99387
2018-03-20T06:58:59.443Z,99380
2018-03-20T07:01:04.722Z,99387
2018-03-20T07:03:08.009Z,99390
2018-03-20T07:05:11.180Z,99380
2018-03-20T07:07:15.385Z,99382
2018-03-20T07:09:19.017Z,99378
2018-03-20T07:11:22.750Z,99388
2018-03-20T07:13:27.280Z,99385
2018-03-20T07:15:30.416Z,99375
2018-03-20T07:17:33.644Z,99389
2018-03-20T07:19:37.582Z,99375
2018-03-20T07:21:41.517Z,99378
2018-03-20T07:23:45.466Z,99379
2018-03-20T07:25:48.636Z,99378
2018-03-20T07:27:52.575Z,99385
2018-03-20T07:29:59.050Z,99373
2018-03-20T07:32:02.313Z,99396
2018-03-20T07:34:05.456Z,99396
2018-03-20T07:36:10.061Z,99403
2018-03-20T07:38:14.625Z,99418
2018-03-20T07:40:19.242Z,99415
2018-03-20T07:42:23.848Z,99413
2018-03-20T07:44:27.122Z,99429
2018-03-20T07:46:30.309Z,99438
2018-03-20T07:48:33.451Z,99444
2018-03-20T07:50:37.357Z,99439
2018-03-20T07:52:41.298Z,99442
2018-03-20T07:54:45.209Z,99447
2018-03-20T07:56:48.392Z,99460
2018-03-20T07:58:51.574Z,99465
2018-03-20T08:00:54.913Z,99459
2018-03-20T08:02:59.208Z,99466
2018-03-20T08:05:02.431Z,99470
2018-03-20T08:07:05.614Z,99465
2018-03-20T08:09:10.385Z,99472
2018-03-20T08:11:15.180Z,99466
2018-03-20T08:13:18.832Z,99467
2018-03-20T08:15:22.333Z,99478
2018-03-20T08:17:26.273Z,99477
2018-03-20T08:19:29.442Z,99470
2018-03-20T08:21:32.622Z,99468
2018-03-20T08:23:36.920Z,99468
2018-03-20T08:25:41.598Z,99468
2018-03-20T08:27:46.997Z,99468
2018-03-20T08:29:51.823Z,99483
2018-03-20T08:31:56.675Z,99475
2018-03-20T08:33:59.954Z,99470
2018-03-20T08:36:03.972Z,99485
2018-03-20T08:38:07.145Z,99482
2018-03-20T08:40:12.185Z,99482
2018-03-20T08:42:16.442Z,99478
2018-03-20T08:44:19.621Z,99478
2018-03-20T08:46:23.619Z,99481
2018-03-20T08:48:28.356Z,99485
2018-03-20T08:50:33.677Z,99490
2018-03-20T08:52:37.341Z,99487
2018-03-20T08:54:40.705Z,99494
2018-03-20T08:56:43.899Z,99496
2018-03-20T08:58:47.847Z,99495
2018-03-20T09:00:51.024Z,99505
2018-03-20T09:02:55.694Z,99503
2018-03-20T09:05:01.023Z,99508
2018-03-20T09:07:05.075Z,99506
2018-03-20T09:09:10.093Z,99506
2018-03-20T09:11:15.744Z,99522
2018-03-20T09:13:19.043Z,99526
2018-03-20T09:15:22.220Z,99521
2018-03-20T09:17:25.400Z,99519
2018-03-20T09:19:29.344Z,99523
2018-03-20T09:21:32.525Z,99532
2018-03-20T09:23:35.701Z,99542
2018-03-20T09:25:38.884Z,99544
2018-03-20T09:27:42.090Z,99556
2018-03-20T09:29:46.189Z,99548
2018-03-20T09:31:50.148Z,99548
2018-03-20T09:33:53.458Z,99552
2018-03-20T09:35:56.649Z,99566
2018-03-20T09:37:59.829Z,99560
2018-03-20T09:40:03.009Z,99556
2018-03-20T09:42:06.173Z,99564
2018-03-20T09:44:09.367Z,99564
2018-03-20T09:46:13.305Z,99577
2018-03-20T09:48:16.499Z,99565
2018-03-20T09:50:20.564Z,99577
2018-03-20T09:52:23.737Z,99553
2018-03-20T09:54:27.676Z,99575
2018-03-20T09:56:30.904Z,99566
2018-03-20T09:58:34.069Z,99576
2018-03-20T10:00:38.002Z,99575
2018-03-20T10:02:41.932Z,99568
2018-03-20T10:04:46.865Z,99571
2018-03-20T10:06:50.036Z,99585
2018-03-20T10:08:53.210Z,99564
2018-03-20T10:10:57.529Z,99582
2018-03-20T10:13:02.855Z,99586
2018-03-20T10:15:06.868Z,99596
2018-03-20T10:17:12.657Z,99603
2018-03-20T10:19:21.595Z,99599
2018-03-20T10:21:25.514Z,99603
2018-03-20T10:23:30.190Z,99616
2018-03-20T10:25:34.123Z,99618
2018-03-20T10:27:37.293Z,99617
2018-03-20T10:29:40.458Z,99608
2018-03-20T10:31:43.639Z,99620
2018-03-20T10:33:48.069Z,99617
2018-03-20T10:35:52.005Z,99613
2018-03-20T10:37:55.175Z,99609
2018-03-20T10:39:59.117Z,99616
2018-03-20T10:42:03.073Z,99617
2018-03-20T10:44:07.118Z,99624
2018-03-20T10:46:10.607Z,99632
2018-03-20T10:48:13.793Z,99622
2018-03-20T10:50:18.459Z,99623
2018-03-20T10:52:21.635Z,99641
2018-03-20T10:54:25.565Z,99628
2018-03-20T10:56:30.520Z,99646
2018-03-20T10:58:34.457Z,99637
2018-03-20T11:00:38.393Z,99646
2018-03-20T11:02:47.192Z,99658
2018-03-20T11:04:51.869Z,99649
2018-03-20T11:06:55.066Z,99644
2018-03-20T11:08:59.760Z,99654
2018-03-20T11:11:02.939Z,99673
2018-03-20T11:13:06.115Z,99667
2018-03-20T11:15:10.645Z,99674
2018-03-20T11:17:13.809Z,99684
2018-03-20T11:19:16.980Z,99673
2018-03-20T11:21:20.917Z,99690
2018-03-20T11:23:24.104Z,99685
2018-03-20T11:25:28.141Z,99666
2018-03-20T11:27:32.116Z,99684
2018-03-20T11:29:35.489Z,99673
2018-03-20T11:31:38.659Z,99671
2018-03-20T11:33:41.824Z,99676
2018-03-20T11:35:44.986Z,99669
2018-03-20T11:37:48.149Z,99679
2018-03-20T11:39:51.318Z,99677
2018-03-20T11:41:55.262Z,99674
2018-03-20T11:43:58.480Z,99682
2018-03-20T11:46:02.390Z,99685
2018-03-20T11:48:05.561Z,99688
2018-03-20T11:50:08.997Z,99693
2018-03-20T11:52:12.933Z,99691
2018-03-20T11:54:16.108Z,99683
2018-03-20T11:56:19.292Z,99683
2018-03-20T11:58:22.461Z,99689
2018-03-20T12:00:26.549Z,99685
2018-03-20T12:02:29.714Z,99693
2018-03-20T12:04:33.291Z,99680
2018-03-20T12:06:37.650Z,99689
2018-03-20T12:08:51.681Z,99681
2018-03-20T12:10:58.001Z,99694
2018-03-20T12:13:02.918Z,99696
2018-03-20T12:15:06.137Z,99688
2018-03-20T12:17:09.321Z,99692
2018-03-20T12:19:13.713Z,99703
2018-03-20T12:21:16.892Z,99694
2018-03-20T12:23:20.820Z,99690
2018-03-20T12:25:24.009Z,99687
2018-03-20T12:27:27.948Z,99691
2018-03-20T12:29:33.209Z,99695
2018-03-20T12:31:36.449Z,99699
2018-03-20T12:33:39.641Z,99693
2018-03-20T12:35:42.815Z,99691
2018-03-20T12:37:46.783Z,99686
2018-03-20T12:39:49.941Z,99695
2018-03-20T12:41:53.990Z,99695
2018-03-20T12:43:57.927Z,99698
2018-03-20T12:46:01.117Z,99696
2018-03-20T12:48:05.064Z,99697
2018-03-20T12:50:08.249Z,99698
2018-03-20T12:52:13.301Z,99707
2018-03-20T12:54:17.244Z,99713
2018-03-20T12:56:20.434Z,99711
2018-03-20T12:58:24.411Z,99709
2018-03-20T13:00:27.596Z,99717
2018-03-20T13:02:30.765Z,99712
2018-03-20T13:04:33.988Z,99710
2018-03-20T13:06:37.134Z,99717
2018-03-20T13:08:40.313Z,99721
2018-03-20T13:10:43.501Z,99716
2018-03-20T13:12:47.449Z,99712
2018-03-20T13:14:50.737Z,99720
2018-03-20T13:16:54.673Z,99737
2018-03-20T13:18:58.613Z,99740
2018-03-20T13:21:01.786Z,99726
2018-03-20T13:23:05.732Z,99716
2018-03-20T13:25:09.684Z,99734
2018-03-20T13:27:12.981Z,99730
2018-03-20T13:29:16.294Z,99728
2018-03-20T13:31:19.469Z,99738
2018-03-20T13:33:22.649Z,99736
2018-03-20T13:35:25.853Z,99742
2018-03-20T13:37:29.064Z,99751
2018-03-20T13:39:32.245Z,99747
2018-03-20T13:41:35.445Z,99750
2018-03-20T13:43:38.621Z,99753
2018-03-20T13:45:41.796Z,99750
2018-03-20T13:47:45.017Z,99757
2018-03-20T13:49:48.484Z,99749
2018-03-20T13:51:52.817Z,99767
2018-03-20T13:53:56.021Z,99758
2018-03-20T13:55:59.966Z,99750
2018-03-20T13:58:03.468Z,99776
2018-03-20T14:00:07.030Z,99774
2018-03-20T14:02:10.225Z,99762
2018-03-20T14:04:13.400Z,99770
2018-03-20T14:06:16.919Z,99780
2018-03-20T14:08:20.089Z,99794
2018-03-20T14:10:23.275Z,99785
2018-03-20T14:12:26.736Z,99793
2018-03-20T14:14:29.959Z,99785
2018-03-20T14:16:33.129Z,99786
2018-03-20T14:18:36.311Z,99780
2018-03-20T14:20:39.504Z,99804
2018-03-20T14:22:42.677Z,99794
2018-03-20T14:24:46.622Z,99784
2018-03-20T14:26:50.120Z,99800
2018-03-20T14:28:53.400Z,99803
2018-03-20T14:30:56.586Z,99817
2018-03-20T14:32:59.772Z,99817
2018-03-20T14:35:03.119Z,99798
2018-03-20T14:37:06.306Z,99818
2018-03-20T14:39:09.475Z,99813
2018-03-20T14:41:13.416Z,99820
2018-03-20T14:43:16.596Z,99830
2018-03-20T14:45:20.533Z,99831
2018-03-20T14:47:24.478Z,99826
2018-03-20T14:49:27.771Z,99833
2018-03-20T14:51:32.236Z,99833
2018-03-20T14:53:35.672Z,99839
2018-03-20T14:55:38.938Z,99837
2018-03-20T14:57:42.881Z,99847
2018-03-20T14:59:46.190Z,99844
2018-03-20T15:01:49.445Z,99841
2018-03-20T15:03:52.701Z,99845
2018-03-20T15:05:57.770Z,99843
2018-03-20T15:08:00.949Z,99853
2018-03-20T15:10:04.901Z,99850
2018-03-20T15:12:08.085Z,99858
2018-03-20T15:14:12.032Z,99861
2018-03-20T15:16:15.208Z,99883
2018-03-20T15:18:19.160Z,99877
2018-03-20T15:20:23.901Z,99879
2018-03-20T15:22:27.082Z,99872
2018-03-20T15:24:31.044Z,99873
2018-03-20T15:26:34.225Z,99877
2018-03-20T15:28:37.701Z,99887
2018-03-20T15:30:40.872Z,99888
2018-03-20T15:32:44.183Z,99894
2018-03-20T15:34:47.361Z,99899
2018-03-20T15:36:51.312Z,99893
2018-03-20T15:38:54.538Z,99909
2018-03-20T15:40:58.064Z,99902
2018-03-20T15:43:01.238Z,99913
2018-03-20T15:45:05.180Z,99915
2018-03-20T15:47:08.352Z,99921
2018-03-20T15:49:11.572Z,99922
2018-03-20T15:51:15.519Z,99926
2018-03-20T15:53:18.741Z,99933
2018-03-20T15:55:22.019Z,99936
2018-03-20T15:57:25.466Z,99925
2018-03-20T15:59:28.633Z,99929
2018-03-20T16:01:32.581Z,99931
2018-03-20T16:03:35.794Z,99932
2018-03-20T16:05:38.979Z,99940
2018-03-20T16:07:42.924Z,99951
2018-03-20T16:09:46.222Z,99940
2018-03-20T16:11:49.445Z,99958
2018-03-20T16:13:52.629Z,99965
2018-03-20T16:15:55.795Z,99973
2018-03-20T16:17:59.093Z,99968
2018-03-20T16:20:02.485Z,99982
2018-03-20T16:22:05.668Z,99986
2018-03-20T16:24:08.842Z,99977
2018-03-20T16:26:12.021Z,99981
2018-03-20T16:28:15.213Z,99985
2018-03-20T16:30:19.752Z,99993
2018-03-20T16:32:23.703Z,99990
2018-03-20T16:34:26.875Z,99990
2018-03-20T16:36:30.869Z,100002
2018-03-20T16:38:34.058Z,100000
2018-03-20T16:40:37.528Z,100005
2018-03-20T16:42:40.868Z,100005
2018-03-20T16:44:44.047Z,100003
2018-03-20T16:46:48.249Z,100017
2018-03-20T16:48:52.233Z,100027
2018-03-20T16:50:55.736Z,100018
2018-03-20T16:53:00.904Z,100022
2018-03-20T16:55:04.085Z,100037
2018-03-20T16:57:08.025Z,100028
2018-03-20T16:59:11.212Z,100038
2018-03-20T17:01:15.157Z,100039
2018-03-20T17:03:18.337Z,100039
2018-03-20T17:05:21.509Z,100054
2018-03-20T17:07:24.701Z,100046
2018-03-20T17:09:27.882Z,100056
2018-03-20T17:11:31.829Z,100053
2018-03-20T17:13:34.997Z,100060
2018-03-20T17:15:38.929Z,100061
2018-03-20T17:17:42.907Z,100075
2018-03-20T17:19:46.086Z,100069
2018-03-20T17:21:49.585Z,100076
2018-03-20T17:23:53.049Z,100086
2018-03-20T17:25:56.221Z,100078
2018-03-20T17:27:59.504Z,100078
2018-03-20T17:30:02.681Z,100087
2018-03-20T17:32:05.885Z,100093
2018-03-20T17:34:09.062Z,100089
2018-03-20T17:36:12.662Z,100088
2018-03-20T17:38:16.599Z,100099
2018-03-20T17:40:19.769Z,100097
2018-03-20T17:42:22.945Z,100108
2018-03-20T17:44:26.117Z,100101
2018-03-20T17:46:30.053Z,100108
2018-03-20T17:48:33.239Z,100115
2018-03-20T17:50:37.185Z,100110
2018-03-20T17:52:40.352Z,100119
2018-03-20T17:54:43.546Z,100123
2018-03-20T17:56:46.724Z,100123
2018-03-20T17:58:49.888Z,100129
2018-03-20T18:00:53.841Z,100138
2018-03-20T18:02:57.030Z,100132
2018-03-20T18:05:02.092Z,100136
2018-03-20T18:07:06.024Z,100140
2018-03-20T18:09:09.188Z,100135
2018-03-20T18:11:12.357Z,100143
2018-03-20T18:13:15.857Z,100149
2018-03-20T18:15:19.055Z,100147
2018-03-20T18:17:22.633Z,100161
2018-03-20T18:19:26.002Z,100154
2018-03-20T18:21:29.177Z,100158
2018-03-20T18:23:32.401Z,100164
2018-03-20T18:25:36.338Z,100176
2018-03-20T18:27:39.513Z,100179
2018-03-20T18:29:42.989Z,100183
2018-03-20T18:31:46.157Z,100186
2018-03-20T18:33:50.092Z,100195
2018-03-20T18:35:53.264Z,100197
2018-03-20T18:37:56.439Z,100196
2018-03-20T18:39:59.622Z,100201
2018-03-20T18:42:04.137Z,100215
2018-03-20T18:44:08.085Z,100210
2018-03-20T18:46:11.280Z,100214
2018-03-20T18:50:50.553Z,100225
2018-03-20T18:52:54.486Z,100221
2018-03-20T18:54:57.678Z,100230
2018-03-20T18:57:01.617Z,100227
2018-03-20T18:59:05.034Z,100226
2018-03-20T19:01:08.468Z,100239
2018-03-20T19:03:11.652Z,100245
2018-03-20T19:05:15.065Z,100251
2018-03-20T19:07:19.010Z,100254
2018-03-20T19:09:22.182Z,100258
2018-03-20T19:11:26.116Z,100259
2018-03-20T19:13:30.068Z,100255
2018-03-20T19:15:33.272Z,100253
2018-03-20T19:17:36.445Z,100261
2018-03-20T19:19:40.380Z,100273
2018-03-20T19:21:44.449Z,100273
2018-03-20T19:23:47.633Z,100285
2018-03-20T19:25:50.800Z,100290
2018-03-20T19:27:54.750Z,100294
2018-03-20T19:29:58.689Z,100301
2018-03-20T19:32:02.018Z,100300
2018-03-20T19:34:05.177Z,100312
2018-03-20T19:36:08.353Z,100306
2018-03-20T19:38:11.525Z,100317
2018-03-20T19:40:14.694Z,100323
2018-03-20T19:42:17.993Z,100334
2018-03-20T19:44:21.170Z,100326
2018-03-20T19:46:25.211Z,100326
2018-03-20T19:48:28.395Z,100333
2018-03-20T19:50:31.577Z,100332
2018-03-20T19:52:35.618Z,100332
2018-03-20T19:54:39.862Z,100347
2018-03-20T19:56:43.046Z,100341
2018-03-20T19:58:46.991Z,100352
2018-03-20T20:00:50.173Z,100352
2018-03-20T20:02:54.969Z,100352
2018-03-20T20:04:58.497Z,100357
2018-03-20T20:07:02.014Z,100363
2018-03-20T20:09:05.938Z,100355
2018-03-20T20:11:09.109Z,100363
2018-03-20T20:13:12.277Z,100373
2018-03-20T20:15:15.448Z,100369
2018-03-20T20:17:18.828Z,100376
2018-03-20T20:19:22.737Z,100371
2018-03-20T20:21:26.314Z,100381
2018-03-20T20:23:29.485Z,100390
2018-03-20T20:25:32.663Z,100383
2018-03-20T20:27:36.583Z,100393
2018-03-20T20:29:39.773Z,100385
2018-03-20T20:31:42.909Z,100389
2018-03-20T20:33:46.682Z,100391
2018-03-20T20:35:49.894Z,100396
2018-03-20T20:37:53.037Z,100391
2018-03-20T20:39:56.260Z,100393
2018-03-20T20:42:00.209Z,100406
2018-03-20T20:44:03.370Z,100396
2018-03-20T20:46:07.534Z,100397
2018-03-20T20:48:13.086Z,100398
2018-03-20T20:50:17.460Z,100411
2018-03-20T20:52:20.612Z,100408
2018-03-20T20:54:25.302Z,100409
2018-03-20T20:56:28.493Z,100409
2018-03-20T20:58:32.402Z,100409
2018-03-20T21:00:36.313Z,100414
2018-03-20T21:02:40.992Z,100416
2018-03-20T21:04:44.138Z,100423
2018-03-20T21:06:47.277Z,100416
2018-03-20T21:08:50.471Z,100431
2018-03-20T21:10:53.649Z,100427
2018-03-20T21:12:56.819Z,100421
2018-03-20T21:15:00.769Z,100427
2018-03-20T21:17:03.969Z,100427
2018-03-20T21:19:07.113Z,100435
2018-03-20T21:21:10.309Z,100444
2018-03-20T21:23:13.465Z,100443
2018-03-20T21:25:17.443Z,100440
2018-03-20T21:27:20.585Z,100448
2018-03-20T21:29:23.731Z,100431
2018-03-20T21:31:26.900Z,100447
2018-03-20T21:33:31.580Z,100439
2018-03-20T21:35:34.725Z,100448
2018-03-20T21:37:38.996Z,100444
2018-03-20T21:39:42.161Z,100444
2018-03-20T21:41:45.337Z,100451
2018-03-20T21:43:48.487Z,100447
2018-03-20T21:45:52.273Z,100444
2018-03-20T21:47:55.871Z,100452
2018-03-20T21:49:59.846Z,100457
2018-03-20T21:52:03.009Z,100460
2018-03-20T21:54:06.921Z,100452
2018-03-20T21:56:10.896Z,100464
2018-03-20T21:58:14.064Z,100464
2018-03-20T22:00:18.000Z,100458
2018-03-20T22:02:21.144Z,100457
2018-03-20T22:04:24.320Z,100456
2018-03-20T22:06:27.486Z,100462
2018-03-20T22:08:30.651Z,100461
2018-03-20T22:10:33.796Z,100470
2018-03-20T22:12:36.975Z,100462
2018-03-20T22:14:40.401Z,100472
2018-03-20T22:16:43.556Z,100477
2018-03-20T22:18:47.493Z,100476
2018-03-20T22:20:50.637Z,100473
2018-03-20T22:22:53.809Z,100476
2018-03-20T22:24:56.984Z,100473
2018-03-20T22:27:00.736Z,100475
2018-03-20T22:29:04.054Z,100479
2018-03-20T22:31:07.198Z,100476
2018-03-20T22:33:10.341Z,100476
2018-03-20T22:35:15.413Z,100485
2018-03-20T22:37:18.565Z,100479
2018-03-20T22:39:21.709Z,100483
2018-03-20T22:41:25.657Z,100494
2018-03-20T22:43:28.804Z,100486
2018-03-20T22:45:31.944Z,100487
2018-03-20T22:47:35.130Z,100498
2018-03-20T22:49:38.273Z,100494
2018-03-20T22:51:41.526Z,100489
2018-03-20T22:53:44.702Z,100496
2018-03-20T22:55:47.888Z,100504
2018-03-20T22:57:51.849Z,100509
2018-03-20T22:59:54.997Z,100501
2018-03-20T23:01:58.681Z,100508
2018-03-20T23:04:01.850Z,100503
2018-03-20T23:06:06.009Z,100506
2018-03-20T23:08:09.158Z,100508
2018-03-20T23:10:12.308Z,100509
2018-03-20T23:12:16.445Z,100511
2018-03-20T23:14:19.590Z,100504
2018-03-20T23:16:22.733Z,100512
2018-03-20T23:18:25.926Z,100513
2018-03-20T23:20:29.093Z,100515
2018-03-20T23:22:32.245Z,100509
2018-03-20T23:24:35.430Z,100515
2018-03-20T23:26:38.601Z,100518
2018-03-20T23:28:43.248Z,100524
2018-03-20T23:30:46.852Z,100518
2018-03-20T23:32:50.764Z,100523
2018-03-20T23:34:54.673Z,100524
2018-03-20T23:36:58.607Z,100526
2018-03-20T23:39:02.705Z,100530
2018-03-20T23:41:05.849Z,100537
2018-03-20T23:43:09.781Z,100539
2018-03-20T23:45:13.706Z,100540
2018-03-20T23:47:16.890Z,100543
2018-03-20T23:49:20.060Z,100543
2018-03-20T23:51:23.201Z,100541
2018-03-20T23:53:27.145Z,100542
2018-03-20T23:55:30.293Z,100549
2018-03-20T23:57:33.465Z,100546
2018-03-20T23:59:37.525Z,100546
